sensor_id;sensor_type;location;lat;lon;timestamp;P1;durP1;ratioP1;P2;durP2;ratioP2
50733;SDS011;36701;51.798;19.474;2023-07-29T02:01:21;11.88;;;8.40;;
50733;SDS011;36701;51.798;19.474;2023-07-29T02:03:48;17.65;;;9.50;;
50733;SDS011;36701;51.798;19.474;2023-07-29T02:06:20;17.65;;;9.85;;
50733;SDS011;36701;51.798;19.474;2023-07-29T02:08:46;16.73;;;9.80;;
50733;SDS011;36701;51.798;19.474;2023-07-29T02:11:13;13.32;;;10.20;;
50733;SDS011;36701;51.798;19.474;2023-07-29T02:13:39;15.82;;;11.15;;
50733;SDS011;36701;51.798;19.474;2023-07-29T02:16:05;15.73;;;10.10;;
50733;SDS011;36701;51.798;19.474;2023-07-29T02:18:31;20.02;;;10.95;;
50733;SDS011;36701;51.798;19.474;2023-07-29T02:20:58;19.23;;;10.80;;
50733;SDS011;36701;51.798;19.474;2023-07-29T02:23:24;16.35;;;10.95;;
50733;SDS011;36701;51.798;19.474;2023-07-29T02:25:50;16.30;;;10.65;;
50733;SDS011;36701;51.798;19.474;2023-07-29T02:28:16;16.77;;;10.30;;
50733;SDS011;36701;51.798;19.474;2023-07-29T02:30:43;24.20;;;10.43;;
50733;SDS011;36701;51.798;19.474;2023-07-29T02:33:13;34.40;;;11.82;;
50733;SDS011;36701;51.798;19.474;2023-07-29T02:35:38;24.02;;;12.45;;
50733;SDS011;36701;51.798;19.474;2023-07-29T02:38:05;17.05;;;11.40;;
50733;SDS011;36701;51.798;19.474;2023-07-29T02:40:31;24.60;;;11.70;;
50733;SDS011;36701;51.798;19.474;2023-07-29T02:42:58;24.27;;;12.35;;
50733;SDS011;36701;51.798;19.474;2023-07-29T02:45:24;31.80;;;12.23;;
50733;SDS011;36701;51.798;19.474;2023-07-29T02:47:50;61.20;;;12.85;;
50733;SDS011;36701;51.798;19.474;2023-07-29T02:50:16;378.25;;;21.33;;
50733;SDS011;36701;51.798;19.474;2023-07-29T02:52:43;115.00;;;17.23;;
50733;SDS011;36701;51.798;19.474;2023-07-29T02:55:09;438.80;;;19.50;;
50733;SDS011;36701;51.798;19.474;2023-07-29T02:57:35;279.25;;;17.55;;
50733;SDS011;36701;51.798;19.474;2023-07-29T03:00:01;352.90;;;19.77;;
50733;SDS011;36701;51.798;19.474;2023-07-29T03:02:28;304.98;;;17.05;;
50733;SDS011;36701;51.798;19.474;2023-07-29T03:04:54;192.25;;;17.35;;
50733;SDS011;36701;51.798;19.474;2023-07-29T03:07:21;414.83;;;20.48;;
50733;SDS011;36701;51.798;19.474;2023-07-29T03:09:47;288.20;;;18.77;;
50733;SDS011;36701;51.798;19.474;2023-07-29T03:12:13;222.27;;;17.10;;
50733;SDS011;36701;51.798;19.474;2023-07-29T03:14:39;351.23;;;20.98;;
50733;SDS011;36701;51.798;19.474;2023-07-29T03:17:07;313.50;;;20.00;;
50733;SDS011;36701;51.798;19.474;2023-07-29T03:19:33;247.95;;;17.40;;
50733;SDS011;36701;51.798;19.474;2023-07-29T03:21:59;208.85;;;17.45;;
50733;SDS011;36701;51.798;19.474;2023-07-29T03:24:26;398.40;;;20.35;;
50733;SDS011;36701;51.798;19.474;2023-07-29T03:26:52;303.90;;;18.95;;
50733;SDS011;36701;51.798;19.474;2023-07-29T03:29:18;233.87;;;18.98;;
50733;SDS011;36701;51.798;19.474;2023-07-29T03:31:44;265.65;;;18.58;;
50733;SDS011;36701;51.798;19.474;2023-07-29T03:34:10;395.40;;;22.80;;
50733;SDS011;36701;51.798;19.474;2023-07-29T03:36:39;342.55;;;20.25;;
50733;SDS011;36701;51.798;19.474;2023-07-29T03:39:05;271.55;;;17.27;;
50733;SDS011;36701;51.798;19.474;2023-07-29T03:41:31;205.90;;;17.12;;
50733;SDS011;36701;51.798;19.474;2023-07-29T03:43:57;254.38;;;18.77;;
50733;SDS011;36701;51.798;19.474;2023-07-29T03:46:24;199.40;;;16.27;;
50733;SDS011;36701;51.798;19.474;2023-07-29T03:48:50;208.57;;;16.30;;
50733;SDS011;36701;51.798;19.474;2023-07-29T03:51:16;176.27;;;16.10;;
50733;SDS011;36701;51.798;19.474;2023-07-29T03:53:42;169.05;;;14.60;;
50733;SDS011;36701;51.798;19.474;2023-07-29T03:56:09;241.98;;;16.20;;
50733;SDS011;36701;51.798;19.474;2023-07-29T03:58:35;304.55;;;17.42;;
50733;SDS011;36701;51.798;19.474;2023-07-29T04:01:02;370.88;;;17.20;;
50733;SDS011;36701;51.798;19.474;2023-07-29T04:03:28;321.90;;;16.33;;
50733;SDS011;36701;51.798;19.474;2023-07-29T04:05:54;206.60;;;19.25;;
50733;SDS011;36701;51.798;19.474;2023-07-29T04:08:21;373.70;;;18.00;;
50733;SDS011;36701;51.798;19.474;2023-07-29T04:10:48;265.42;;;18.17;;
50733;SDS011;36701;51.798;19.474;2023-07-29T04:13:14;268.02;;;17.85;;
50733;SDS011;36701;51.798;19.474;2023-07-29T04:15:40;212.40;;;15.43;;
50733;SDS011;36701;51.798;19.474;2023-07-29T04:18:06;191.57;;;17.75;;
50733;SDS011;36701;51.798;19.474;2023-07-29T04:20:33;192.70;;;15.60;;
50733;SDS011;36701;51.798;19.474;2023-07-29T04:22:59;254.27;;;16.67;;
50733;SDS011;36701;51.798;19.474;2023-07-29T04:25:26;238.93;;;15.18;;
50733;SDS011;36701;51.798;19.474;2023-07-29T04:27:52;197.57;;;14.57;;
50733;SDS011;36701;51.798;19.474;2023-07-29T04:30:18;244.43;;;15.93;;
50733;SDS011;36701;51.798;19.474;2023-07-29T04:32:44;179.82;;;14.77;;
50733;SDS011;36701;51.798;19.474;2023-07-29T04:35:14;349.80;;;16.87;;
50733;SDS011;36701;51.798;19.474;2023-07-29T04:37:40;250.77;;;15.25;;
50733;SDS011;36701;51.798;19.474;2023-07-29T04:40:07;111.53;;;14.70;;
50733;SDS011;36701;51.798;19.474;2023-07-29T04:42:33;117.60;;;14.63;;
50733;SDS011;36701;51.798;19.474;2023-07-29T04:44:59;276.23;;;16.70;;
50733;SDS011;36701;51.798;19.474;2023-07-29T04:47:25;185.88;;;15.65;;
50733;SDS011;36701;51.798;19.474;2023-07-29T04:49:52;135.60;;;16.20;;
50733;SDS011;36701;51.798;19.474;2023-07-29T04:52:18;173.10;;;15.18;;
50733;SDS011;36701;51.798;19.474;2023-07-29T04:54:46;111.90;;;14.43;;
50733;SDS011;36701;51.798;19.474;2023-07-29T04:57:12;82.62;;;13.65;;
50733;SDS011;36701;51.798;19.474;2023-07-29T04:59:38;105.70;;;13.90;;
50733;SDS011;36701;51.798;19.474;2023-07-29T05:02:04;79.15;;;14.10;;
50733;SDS011;36701;51.798;19.474;2023-07-29T05:04:33;104.10;;;14.73;;
50733;SDS011;36701;51.798;19.474;2023-07-29T05:06:59;99.95;;;14.68;;
50733;SDS011;36701;51.798;19.474;2023-07-29T05:09:26;175.25;;;18.25;;
50733;SDS011;36701;51.798;19.474;2023-07-29T05:11:52;117.82;;;14.80;;
50733;SDS011;36701;51.798;19.474;2023-07-29T05:14:18;95.38;;;14.82;;
50733;SDS011;36701;51.798;19.474;2023-07-29T05:16:44;94.62;;;15.27;;
50733;SDS011;36701;51.798;19.474;2023-07-29T05:19:11;169.50;;;14.77;;
50733;SDS011;36701;51.798;19.474;2023-07-29T05:21:38;81.25;;;14.55;;
50733;SDS011;36701;51.798;19.474;2023-07-29T05:24:05;117.28;;;14.55;;
50733;SDS011;36701;51.798;19.474;2023-07-29T05:26:31;81.50;;;14.13;;
50733;SDS011;36701;51.798;19.474;2023-07-29T05:28:58;33.83;;;12.30;;
50733;SDS011;36701;51.798;19.474;2023-07-29T05:31:24;36.92;;;12.63;;
50733;SDS011;36701;51.798;19.474;2023-07-29T05:33:50;20.15;;;12.15;;
50733;SDS011;36701;51.798;19.474;2023-07-29T05:36:16;27.92;;;13.32;;
50733;SDS011;36701;51.798;19.474;2023-07-29T05:38:43;19.52;;;12.63;;
50733;SDS011;36701;51.798;19.474;2023-07-29T05:41:09;21.70;;;13.27;;
50733;SDS011;36701;51.798;19.474;2023-07-29T05:43:35;26.17;;;12.85;;
50733;SDS011;36701;51.798;19.474;2023-07-29T05:46:01;19.17;;;13.52;;
50733;SDS011;36701;51.798;19.474;2023-07-29T05:48:28;18.15;;;11.73;;
50733;SDS011;36701;51.798;19.474;2023-07-29T05:50:54;23.80;;;13.68;;
50733;SDS011;36701;51.798;19.474;2023-07-29T05:53:21;34.15;;;15.73;;
50733;SDS011;36701;51.798;19.474;2023-07-29T05:55:47;25.15;;;14.43;;
50733;SDS011;36701;51.798;19.474;2023-07-29T05:58:13;43.08;;;25.00;;
50733;SDS011;36701;51.798;19.474;2023-07-29T06:00:39;37.83;;;20.23;;
50733;SDS011;36701;51.798;19.474;2023-07-29T06:03:05;27.50;;;17.25;;
50733;SDS011;36701;51.798;19.474;2023-07-29T06:05:32;21.05;;;12.45;;
50733;SDS011;36701;51.798;19.474;2023-07-29T06:07:58;17.05;;;10.85;;
50733;SDS011;36701;51.798;19.474;2023-07-29T06:10:26;22.77;;;11.40;;
50733;SDS011;36701;51.798;19.474;2023-07-29T06:12:52;15.80;;;10.32;;
50733;SDS011;36701;51.798;19.474;2023-07-29T06:15:18;17.52;;;10.77;;
50733;SDS011;36701;51.798;19.474;2023-07-29T06:17:48;22.48;;;11.15;;
50733;SDS011;36701;51.798;19.474;2023-07-29T06:20:14;17.25;;;11.35;;
50733;SDS011;36701;51.798;19.474;2023-07-29T06:22:40;18.12;;;10.50;;
50733;SDS011;36701;51.798;19.474;2023-07-29T06:25:07;19.45;;;10.15;;
50733;SDS011;36701;51.798;19.474;2023-07-29T06:27:33;14.55;;;9.65;;
50733;SDS011;36701;51.798;19.474;2023-07-29T06:29:59;16.98;;;11.70;;
50733;SDS011;36701;51.798;19.474;2023-07-29T06:32:26;20.95;;;11.68;;
50733;SDS011;36701;51.798;19.474;2023-07-29T06:34:52;18.05;;;9.90;;
50733;SDS011;36701;51.798;19.474;2023-07-29T06:37:20;15.52;;;9.70;;
50733;SDS011;36701;51.798;19.474;2023-07-29T06:39:46;12.70;;;9.35;;
50733;SDS011;36701;51.798;19.474;2023-07-29T06:42:12;13.07;;;8.80;;
50733;SDS011;36701;51.798;19.474;2023-07-29T06:44:39;8.57;;;6.35;;
50733;SDS011;36701;51.798;19.474;2023-07-29T06:47:06;10.20;;;6.87;;
50733;SDS011;36701;51.798;19.474;2023-07-29T06:49:32;9.38;;;6.85;;
50733;SDS011;36701;51.798;19.474;2023-07-29T06:51:58;11.77;;;8.30;;
50733;SDS011;36701;51.798;19.474;2023-07-29T06:54:24;11.95;;;7.90;;
50733;SDS011;36701;51.798;19.474;2023-07-29T06:56:52;8.77;;;7.03;;
50733;SDS011;36701;51.798;19.474;2023-07-29T06:59:18;13.70;;;7.87;;
50733;SDS011;36701;51.798;19.474;2023-07-29T07:01:44;10.50;;;8.05;;
50733;SDS011;36701;51.798;19.474;2023-07-29T07:04:10;11.98;;;8.77;;
50733;SDS011;36701;51.798;19.474;2023-07-29T07:06:37;12.65;;;9.15;;
50733;SDS011;36701;51.798;19.474;2023-07-29T07:09:03;12.02;;;8.05;;
50733;SDS011;36701;51.798;19.474;2023-07-29T07:11:29;15.00;;;7.93;;
50733;SDS011;36701;51.798;19.474;2023-07-29T07:13:55;13.20;;;7.37;;
50733;SDS011;36701;51.798;19.474;2023-07-29T07:16:21;9.52;;;6.65;;
50733;SDS011;36701;51.798;19.474;2023-07-29T07:18:47;6.15;;;5.53;;
50733;SDS011;36701;51.798;19.474;2023-07-29T07:21:13;10.65;;;6.90;;
50733;SDS011;36701;51.798;19.474;2023-07-29T07:23:40;9.75;;;6.93;;
50733;SDS011;36701;51.798;19.474;2023-07-29T07:26:06;13.57;;;6.80;;
50733;SDS011;36701;51.798;19.474;2023-07-29T07:28:32;7.82;;;6.15;;
50733;SDS011;36701;51.798;19.474;2023-07-29T07:30:58;7.12;;;6.32;;
50733;SDS011;36701;51.798;19.474;2023-07-29T07:33:24;10.25;;;6.45;;
50733;SDS011;36701;51.798;19.474;2023-07-29T07:35:51;7.80;;;6.05;;
50733;SDS011;36701;51.798;19.474;2023-07-29T07:38:17;8.70;;;4.93;;
50733;SDS011;36701;51.798;19.474;2023-07-29T07:40:51;5.03;;;4.53;;
50733;SDS011;36701;51.798;19.474;2023-07-29T07:43:17;4.60;;;4.15;;
50733;SDS011;36701;51.798;19.474;2023-07-29T07:45:44;14.02;;;4.22;;
50733;SDS011;36701;51.798;19.474;2023-07-29T07:48:10;14.50;;;5.75;;
50733;SDS011;36701;51.798;19.474;2023-07-29T07:50:38;10.60;;;5.30;;
50733;SDS011;36701;51.798;19.474;2023-07-29T07:53:04;9.07;;;4.50;;
50733;SDS011;36701;51.798;19.474;2023-07-29T07:55:30;5.72;;;5.03;;
50733;SDS011;36701;51.798;19.474;2023-07-29T07:57:57;8.13;;;3.95;;
50733;SDS011;36701;51.798;19.474;2023-07-29T08:00:23;4.20;;;3.83;;
50733;SDS011;36701;51.798;19.474;2023-07-29T08:02:49;5.78;;;3.50;;
50733;SDS011;36701;51.798;19.474;2023-07-29T08:05:15;8.32;;;3.17;;
50733;SDS011;36701;51.798;19.474;2023-07-29T08:07:41;3.03;;;2.83;;
50733;SDS011;36701;51.798;19.474;2023-07-29T08:10:08;3.50;;;3.25;;
50733;SDS011;36701;51.798;19.474;2023-07-29T08:12:34;2.58;;;2.37;;
50733;SDS011;36701;51.798;19.474;2023-07-29T08:15:00;2.45;;;2.28;;
50733;SDS011;36701;51.798;19.474;2023-07-29T08:17:26;2.70;;;2.50;;
50733;SDS011;36701;51.798;19.474;2023-07-29T08:19:53;2.75;;;2.55;;
50733;SDS011;36701;51.798;19.474;2023-07-29T08:22:19;7.82;;;2.90;;
50733;SDS011;36701;51.798;19.474;2023-07-29T08:24:46;4.03;;;3.72;;
50733;SDS011;36701;51.798;19.474;2023-07-29T08:27:12;3.75;;;3.42;;
50733;SDS011;36701;51.798;19.474;2023-07-29T08:29:39;3.40;;;3.20;;
50733;SDS011;36701;51.798;19.474;2023-07-29T08:32:05;4.60;;;3.83;;
50733;SDS011;36701;51.798;19.474;2023-07-29T08:34:31;4.62;;;3.33;;
50733;SDS011;36701;51.798;19.474;2023-07-29T08:36:57;4.45;;;2.75;;
50733;SDS011;36701;51.798;19.474;2023-07-29T08:39:23;2.40;;;2.30;;
50733;SDS011;36701;51.798;19.474;2023-07-29T08:42:03;9.40;;;2.25;;
50733;SDS011;36701;51.798;19.474;2023-07-29T08:44:36;2.30;;;2.20;;
50733;SDS011;36701;51.798;19.474;2023-07-29T08:47:03;2.20;;;2.10;;
50733;SDS011;36701;51.798;19.474;2023-07-29T08:49:30;3.30;;;2.62;;
50733;SDS011;36701;51.798;19.474;2023-07-29T08:51:58;4.25;;;1.70;;
50733;SDS011;36701;51.798;19.474;2023-07-29T08:54:25;2.53;;;2.40;;
50733;SDS011;36701;51.798;19.474;2023-07-29T08:56:51;2.37;;;2.22;;
50733;SDS011;36701;51.798;19.474;2023-07-29T08:59:18;2.70;;;2.10;;
50733;SDS011;36701;51.798;19.474;2023-07-29T09:01:44;2.67;;;1.85;;
50733;SDS011;36701;51.798;19.474;2023-07-29T09:04:11;2.33;;;1.73;;
50733;SDS011;36701;51.798;19.474;2023-07-29T09:06:39;1.87;;;1.77;;
50733;SDS011;36701;51.798;19.474;2023-07-29T09:09:07;2.53;;;1.75;;
50733;SDS011;36701;51.798;19.474;2023-07-29T09:11:33;1.50;;;1.50;;
50733;SDS011;36701;51.798;19.474;2023-07-29T09:14:00;2.05;;;1.80;;
50733;SDS011;36701;51.798;19.474;2023-07-29T09:16:26;2.60;;;2.40;;
50733;SDS011;36701;51.798;19.474;2023-07-29T09:18:52;4.35;;;2.10;;
50733;SDS011;36701;51.798;19.474;2023-07-29T09:21:24;2.50;;;2.00;;
50733;SDS011;36701;51.798;19.474;2023-07-29T09:23:54;2.10;;;2.00;;
50733;SDS011;36701;51.798;19.474;2023-07-29T09:28:54;5.68;;;2.10;;
50733;SDS011;36701;51.798;19.474;2023-07-29T09:31:20;2.20;;;1.83;;
50733;SDS011;36701;51.798;19.474;2023-07-29T09:33:47;1.80;;;1.70;;
50733;SDS011;36701;51.798;19.474;2023-07-29T09:36:13;3.17;;;2.15;;
50733;SDS011;36701;51.798;19.474;2023-07-29T09:38:39;1.83;;;1.70;;
50733;SDS011;36701;51.798;19.474;2023-07-29T09:41:06;1.65;;;1.65;;
50733;SDS011;36701;51.798;19.474;2023-07-29T09:43:33;1.62;;;1.52;;
50733;SDS011;36701;51.798;19.474;2023-07-29T09:46:03;1.70;;;1.60;;
50733;SDS011;36701;51.798;19.474;2023-07-29T09:48:36;3.60;;;2.37;;
50733;SDS011;36701;51.798;19.474;2023-07-29T09:51:11;1.95;;;1.85;;
50733;SDS011;36701;51.798;19.474;2023-07-29T09:53:47;2.03;;;1.90;;
50733;SDS011;36701;51.798;19.474;2023-07-29T09:56:14;2.60;;;2.12;;
50733;SDS011;36701;51.798;19.474;2023-07-29T09:58:42;8.80;;;1.98;;
50733;SDS011;36701;51.798;19.474;2023-07-29T10:01:08;4.70;;;1.50;;
50733;SDS011;36701;51.798;19.474;2023-07-29T10:03:35;1.90;;;1.80;;
50733;SDS011;36701;51.798;19.474;2023-07-29T10:06:04;5.03;;;1.70;;
50733;SDS011;36701;51.798;19.474;2023-07-29T10:08:31;11.55;;;2.42;;
50733;SDS011;36701;51.798;19.474;2023-07-29T10:11:06;2.45;;;2.12;;
50733;SDS011;36701;51.798;19.474;2023-07-29T10:13:33;2.75;;;2.22;;
50733;SDS011;36701;51.798;19.474;2023-07-29T10:15:59;2.03;;;1.90;;
50733;SDS011;36701;51.798;19.474;2023-07-29T10:18:30;5.10;;;1.90;;
50733;SDS011;36701;51.798;19.474;2023-07-29T10:20:57;3.40;;;1.95;;
50733;SDS011;36701;51.798;19.474;2023-07-29T10:23:24;2.00;;;1.90;;
50733;SDS011;36701;51.798;19.474;2023-07-29T10:26:07;4.65;;;1.40;;
50733;SDS011;36701;51.798;19.474;2023-07-29T10:28:36;1.65;;;1.60;;
50733;SDS011;36701;51.798;19.474;2023-07-29T10:31:08;1.40;;;1.40;;
50733;SDS011;36701;51.798;19.474;2023-07-29T10:33:35;1.80;;;1.70;;
50733;SDS011;36701;51.798;19.474;2023-07-29T10:36:01;2.05;;;1.95;;
50733;SDS011;36701;51.798;19.474;2023-07-29T10:38:28;2.80;;;1.62;;
50733;SDS011;36701;51.798;19.474;2023-07-29T10:40:55;3.15;;;2.00;;
50733;SDS011;36701;51.798;19.474;2023-07-29T10:43:35;4.68;;;1.75;;
50733;SDS011;36701;51.798;19.474;2023-07-29T10:46:21;4.43;;;1.87;;
50733;SDS011;36701;51.798;19.474;2023-07-29T10:53:52;6.55;;;1.77;;
50733;SDS011;36701;51.798;19.474;2023-07-29T10:56:26;1.52;;;1.52;;
50733;SDS011;36701;51.798;19.474;2023-07-29T10:58:52;2.12;;;1.92;;
50733;SDS011;36701;51.798;19.474;2023-07-29T11:01:37;8.38;;;1.85;;
50733;SDS011;36701;51.798;19.474;2023-07-29T11:14:52;1.65;;;1.65;;
50733;SDS011;36701;51.798;19.474;2023-07-29T11:17:18;2.22;;;1.95;;
50733;SDS011;36701;51.798;19.474;2023-07-29T11:19:46;2.95;;;1.80;;
50733;SDS011;36701;51.798;19.474;2023-07-29T11:22:13;3.80;;;1.52;;
50733;SDS011;36701;51.798;19.474;2023-07-29T11:24:41;3.17;;;1.55;;
50733;SDS011;36701;51.798;19.474;2023-07-29T11:27:11;2.22;;;2.12;;
50733;SDS011;36701;51.798;19.474;2023-07-29T11:29:37;2.33;;;2.12;;
50733;SDS011;36701;51.798;19.474;2023-07-29T11:32:03;1.80;;;1.50;;
50733;SDS011;36701;51.798;19.474;2023-07-29T11:34:32;2.33;;;2.03;;
50733;SDS011;36701;51.798;19.474;2023-07-29T11:36:59;12.82;;;1.85;;
50733;SDS011;36701;51.798;19.474;2023-07-29T11:39:25;2.03;;;1.70;;
50733;SDS011;36701;51.798;19.474;2023-07-29T11:41:51;9.68;;;2.83;;
50733;SDS011;36701;51.798;19.474;2023-07-29T11:44:17;4.32;;;1.67;;
50733;SDS011;36701;51.798;19.474;2023-07-29T11:46:43;3.37;;;1.80;;
50733;SDS011;36701;51.798;19.474;2023-07-29T11:49:10;2.53;;;1.50;;
50733;SDS011;36701;51.798;19.474;2023-07-29T11:51:36;1.98;;;1.77;;
50733;SDS011;36701;51.798;19.474;2023-07-29T11:54:02;2.00;;;1.77;;
50733;SDS011;36701;51.798;19.474;2023-07-29T11:56:29;12.10;;;2.08;;
50733;SDS011;36701;51.798;19.474;2023-07-29T11:58:56;2.12;;;2.03;;
50733;SDS011;36701;51.798;19.474;2023-07-29T12:01:22;4.82;;;2.45;;
50733;SDS011;36701;51.798;19.474;2023-07-29T12:03:49;2.08;;;1.98;;
50733;SDS011;36701;51.798;19.474;2023-07-29T12:06:16;2.30;;;2.10;;
50733;SDS011;36701;51.798;19.474;2023-07-29T12:08:42;3.12;;;1.60;;
50733;SDS011;36701;51.798;19.474;2023-07-29T12:11:09;2.47;;;1.87;;
50733;SDS011;36701;51.798;19.474;2023-07-29T12:13:36;5.43;;;2.30;;
50733;SDS011;36701;51.798;19.474;2023-07-29T12:16:02;2.42;;;2.28;;
50733;SDS011;36701;51.798;19.474;2023-07-29T12:18:32;1.87;;;1.80;;
50733;SDS011;36701;51.798;19.474;2023-07-29T12:20:59;1.80;;;1.70;;
50733;SDS011;36701;51.798;19.474;2023-07-29T12:23:25;1.83;;;1.77;;
50733;SDS011;36701;51.798;19.474;2023-07-29T12:25:58;3.65;;;1.75;;
50733;SDS011;36701;51.798;19.474;2023-07-29T12:28:24;5.12;;;1.87;;
50733;SDS011;36701;51.798;19.474;2023-07-29T12:30:56;1.98;;;1.87;;
50733;SDS011;36701;51.798;19.474;2023-07-29T12:33:33;2.00;;;1.90;;
50733;SDS011;36701;51.798;19.474;2023-07-29T12:35:59;1.92;;;1.83;;
50733;SDS011;36701;51.798;19.474;2023-07-29T12:38:26;2.00;;;2.00;;
50733;SDS011;36701;51.798;19.474;2023-07-29T12:40:52;1.73;;;1.73;;
50733;SDS011;36701;51.798;19.474;2023-07-29T12:43:19;2.67;;;1.80;;
50733;SDS011;36701;51.798;19.474;2023-07-29T12:45:45;3.70;;;2.67;;
50733;SDS011;36701;51.798;19.474;2023-07-29T12:48:11;2.30;;;2.10;;
50733;SDS011;36701;51.798;19.474;2023-07-29T12:50:38;2.10;;;2.00;;
50733;SDS011;36701;51.798;19.474;2023-07-29T12:53:04;5.50;;;1.83;;
50733;SDS011;36701;51.798;19.474;2023-07-29T12:55:30;2.08;;;1.95;;
50733;SDS011;36701;51.798;19.474;2023-07-29T12:57:57;2.65;;;2.45;;
50733;SDS011;36701;51.798;19.474;2023-07-29T13:00:24;4.40;;;1.92;;
50733;SDS011;36701;51.798;19.474;2023-07-29T13:02:50;3.17;;;2.08;;
50733;SDS011;36701;51.798;19.474;2023-07-29T13:05:16;5.25;;;2.05;;
50733;SDS011;36701;51.798;19.474;2023-07-29T13:07:43;2.10;;;2.00;;
50733;SDS011;36701;51.798;19.474;2023-07-29T13:10:15;1.83;;;1.83;;
50733;SDS011;36701;51.798;19.474;2023-07-29T13:12:42;1.80;;;1.80;;
50733;SDS011;36701;51.798;19.474;2023-07-29T13:15:08;4.22;;;2.22;;
50733;SDS011;36701;51.798;19.474;2023-07-29T13:17:34;1.90;;;1.80;;
50733;SDS011;36701;51.798;19.474;2023-07-29T13:20:00;2.10;;;1.90;;
50733;SDS011;36701;51.798;19.474;2023-07-29T13:22:27;2.28;;;2.08;;
50733;SDS011;36701;51.798;19.474;2023-07-29T13:24:52;2.00;;;1.90;;
50733;SDS011;36701;51.798;19.474;2023-07-29T13:27:19;1.62;;;1.45;;
50733;SDS011;36701;51.798;19.474;2023-07-29T13:29:45;2.78;;;2.00;;
50733;SDS011;36701;51.798;19.474;2023-07-29T13:32:12;2.40;;;2.30;;
50733;SDS011;36701;51.798;19.474;2023-07-29T13:34:39;2.65;;;2.10;;
50733;SDS011;36701;51.798;19.474;2023-07-29T13:37:06;5.35;;;2.55;;
50733;SDS011;36701;51.798;19.474;2023-07-29T13:39:32;2.35;;;2.00;;
50733;SDS011;36701;51.798;19.474;2023-07-29T13:41:58;2.05;;;1.95;;
50733;SDS011;36701;51.798;19.474;2023-07-29T13:44:24;2.08;;;1.98;;
50733;SDS011;36701;51.798;19.474;2023-07-29T13:46:51;2.37;;;2.28;;
50733;SDS011;36701;51.798;19.474;2023-07-29T13:49:17;3.53;;;2.22;;
50733;SDS011;36701;51.798;19.474;2023-07-29T13:51:43;1.73;;;1.73;;
50733;SDS011;36701;51.798;19.474;2023-07-29T13:54:15;3.47;;;2.25;;
50733;SDS011;36701;51.798;19.474;2023-07-29T13:56:42;2.10;;;2.00;;
50733;SDS011;36701;51.798;19.474;2023-07-29T13:59:08;1.98;;;1.87;;
50733;SDS011;36701;51.798;19.474;2023-07-29T14:01:34;2.10;;;2.00;;
50733;SDS011;36701;51.798;19.474;2023-07-29T14:04:00;1.70;;;1.70;;
50733;SDS011;36701;51.798;19.474;2023-07-29T14:06:26;4.28;;;2.62;;
50733;SDS011;36701;51.798;19.474;2023-07-29T14:08:52;2.58;;;2.37;;
50733;SDS011;36701;51.798;19.474;2023-07-29T14:11:19;2.97;;;2.78;;
50733;SDS011;36701;51.798;19.474;2023-07-29T14:13:45;1.87;;;1.77;;
50733;SDS011;36701;51.798;19.474;2023-07-29T14:16:11;1.85;;;1.75;;
50733;SDS011;36701;51.798;19.474;2023-07-29T14:18:38;1.90;;;1.75;;
50733;SDS011;36701;51.798;19.474;2023-07-29T14:21:05;3.67;;;2.83;;
50733;SDS011;36701;51.798;19.474;2023-07-29T14:23:37;2.42;;;1.70;;
50733;SDS011;36701;51.798;19.474;2023-07-29T14:26:04;2.85;;;2.62;;
50733;SDS011;36701;51.798;19.474;2023-07-29T14:28:30;2.12;;;2.00;;
50733;SDS011;36701;51.798;19.474;2023-07-29T14:30:56;6.43;;;2.35;;
50733;SDS011;36701;51.798;19.474;2023-07-29T14:33:22;4.00;;;2.17;;
50733;SDS011;36701;51.798;19.474;2023-07-29T14:35:49;1.98;;;1.73;;
50733;SDS011;36701;51.798;19.474;2023-07-29T14:38:15;2.03;;;1.92;;
50733;SDS011;36701;51.798;19.474;2023-07-29T14:40:42;2.10;;;2.00;;
50733;SDS011;36701;51.798;19.474;2023-07-29T14:43:08;2.15;;;1.95;;
50733;SDS011;36701;51.798;19.474;2023-07-29T14:45:34;1.80;;;1.70;;
50733;SDS011;36701;51.798;19.474;2023-07-29T14:48:00;2.55;;;2.35;;
50733;SDS011;36701;51.798;19.474;2023-07-29T14:50:26;1.83;;;1.70;;
50733;SDS011;36701;51.798;19.474;2023-07-29T14:52:52;3.83;;;2.67;;
50733;SDS011;36701;51.798;19.474;2023-07-29T14:55:19;2.50;;;2.35;;
50733;SDS011;36701;51.798;19.474;2023-07-29T14:57:46;2.17;;;1.87;;
50733;SDS011;36701;51.798;19.474;2023-07-29T15:00:12;3.42;;;1.62;;
50733;SDS011;36701;51.798;19.474;2023-07-29T15:02:39;2.08;;;1.90;;
50733;SDS011;36701;51.798;19.474;2023-07-29T15:05:06;2.17;;;2.08;;
50733;SDS011;36701;51.798;19.474;2023-07-29T15:07:32;2.28;;;2.12;;
50733;SDS011;36701;51.798;19.474;2023-07-29T15:09:58;8.15;;;1.80;;
50733;SDS011;36701;51.798;19.474;2023-07-29T15:12:24;6.00;;;3.08;;
50733;SDS011;36701;51.798;19.474;2023-07-29T15:14:51;1.70;;;1.60;;
50733;SDS011;36701;51.798;19.474;2023-07-29T15:17:18;2.00;;;1.90;;
50733;SDS011;36701;51.798;19.474;2023-07-29T15:19:44;3.17;;;2.35;;
50733;SDS011;36701;51.798;19.474;2023-07-29T15:22:10;2.78;;;2.62;;
50733;SDS011;36701;51.798;19.474;2023-07-29T15:24:36;2.97;;;2.78;;
50733;SDS011;36701;51.798;19.474;2023-07-29T15:27:04;2.20;;;2.10;;
50733;SDS011;36701;51.798;19.474;2023-07-29T15:29:31;2.33;;;2.22;;
50733;SDS011;36701;51.798;19.474;2023-07-29T15:31:58;4.78;;;2.03;;
50733;SDS011;36701;51.798;19.474;2023-07-29T15:34:24;5.22;;;2.10;;
50733;SDS011;36701;51.798;19.474;2023-07-29T15:36:51;5.50;;;2.42;;
50733;SDS011;36701;51.798;19.474;2023-07-29T15:39:17;1.60;;;1.60;;
50733;SDS011;36701;51.798;19.474;2023-07-29T15:41:43;8.32;;;2.08;;
50733;SDS011;36701;51.798;19.474;2023-07-29T15:44:09;3.53;;;3.22;;
50733;SDS011;36701;51.798;19.474;2023-07-29T15:46:35;7.30;;;2.30;;
50733;SDS011;36701;51.798;19.474;2023-07-29T15:49:01;2.72;;;2.47;;
50733;SDS011;36701;51.798;19.474;2023-07-29T15:51:27;2.25;;;2.15;;
50733;SDS011;36701;51.798;19.474;2023-07-29T15:53:54;4.45;;;1.92;;
50733;SDS011;36701;51.798;19.474;2023-07-29T15:56:20;2.17;;;1.98;;
50733;SDS011;36701;51.798;19.474;2023-07-29T15:58:46;2.40;;;2.17;;
50733;SDS011;36701;51.798;19.474;2023-07-29T16:01:12;2.20;;;2.00;;
50733;SDS011;36701;51.798;19.474;2023-07-29T16:03:39;4.68;;;2.33;;
50733;SDS011;36701;51.798;19.474;2023-07-29T16:06:06;3.70;;;1.95;;
50733;SDS011;36701;51.798;19.474;2023-07-29T16:08:33;3.85;;;1.92;;
50733;SDS011;36701;51.798;19.474;2023-07-29T16:10:59;2.53;;;2.08;;
50733;SDS011;36701;51.798;19.474;2023-07-29T16:13:25;4.50;;;2.03;;
50733;SDS011;36701;51.798;19.474;2023-07-29T16:15:51;5.87;;;2.53;;
50733;SDS011;36701;51.798;19.474;2023-07-29T16:18:17;2.92;;;2.50;;
50733;SDS011;36701;51.798;19.474;2023-07-29T16:20:50;4.35;;;2.50;;
50733;SDS011;36701;51.798;19.474;2023-07-29T16:23:17;2.90;;;2.03;;
50733;SDS011;36701;51.798;19.474;2023-07-29T16:25:43;11.25;;;2.35;;
50733;SDS011;36701;51.798;19.474;2023-07-29T16:28:09;3.15;;;2.20;;
50733;SDS011;36701;51.798;19.474;2023-07-29T16:30:35;4.95;;;1.83;;
50733;SDS011;36701;51.798;19.474;2023-07-29T16:33:02;2.08;;;1.90;;
50733;SDS011;36701;51.798;19.474;2023-07-29T16:35:28;6.80;;;1.90;;
50733;SDS011;36701;51.798;19.474;2023-07-29T16:37:54;2.10;;;1.90;;
50733;SDS011;36701;51.798;19.474;2023-07-29T16:40:21;2.45;;;2.20;;